createdAt,value
2018-07-03T00:01:24.443Z,1.93
2018-07-03T00:03:52.648Z,2.00
2018-07-03T00:06:20.908Z,2.00
2018-07-03T00:08:49.107Z,1.70
2018-07-03T00:11:17.440Z,2.10
2018-07-03T00:13:45.666Z,1.90
2018-07-03T00:16:19.235Z,1.57
2018-07-03T00:18:47.441Z,1.70
2018-07-03T00:21:15.651Z,1.60
2018-07-03T00:23:44.048Z,1.90
2018-07-03T00:26:12.312Z,1.53
2018-07-03T00:28:40.607Z,1.80
2018-07-03T00:31:09.346Z,1.30
2018-07-03T00:33:37.546Z,1.90
2018-07-03T00:36:05.840Z,1.67
2018-07-03T00:38:34.040Z,1.40
2018-07-03T00:41:02.247Z,1.87
2018-07-03T00:43:30.454Z,2.10
2018-07-03T00:45:58.695Z,2.00
2018-07-03T00:48:26.943Z,2.00
2018-07-03T00:50:55.217Z,1.77
2018-07-03T00:53:23.431Z,2.27
2018-07-03T00:55:51.672Z,2.23
2018-07-03T00:58:19.662Z,2.37
2018-07-03T01:00:47.867Z,2.17
2018-07-03T01:03:16.092Z,2.10
2018-07-03T01:05:44.306Z,2.13
2018-07-03T01:08:12.531Z,2.23
2018-07-03T01:10:41.419Z,2.20
2018-07-03T01:13:09.652Z,2.00
2018-07-03T01:15:37.877Z,1.90
2018-07-03T01:18:07.124Z,1.90
2018-07-03T01:20:35.335Z,1.80
2018-07-03T01:23:03.608Z,1.80
2018-07-03T01:25:31.813Z,1.67
2018-07-03T01:28:00.209Z,1.70
2018-07-03T01:30:28.408Z,1.70
2018-07-03T01:32:56.643Z,1.70
2018-07-03T01:35:24.864Z,1.67
2018-07-03T01:37:53.087Z,1.87
2018-07-03T01:40:21.346Z,2.00
2018-07-03T01:42:49.549Z,1.80
2018-07-03T01:45:17.792Z,1.80
2018-07-03T01:47:45.992Z,1.67
2018-07-03T01:50:14.238Z,1.90
2018-07-03T01:52:42.464Z,1.50
2018-07-03T01:55:10.672Z,1.80
2018-07-03T01:57:38.894Z,2.20
2018-07-03T02:00:07.136Z,2.30
2018-07-03T02:02:35.359Z,2.23
2018-07-03T02:05:03.568Z,2.40
2018-07-03T02:07:31.832Z,1.90
2018-07-03T02:10:00.105Z,1.70
2018-07-03T02:12:28.344Z,2.13
2018-07-03T02:14:56.560Z,1.90
2018-07-03T02:17:24.809Z,2.00
2018-07-03T02:19:53.037Z,2.10
2018-07-03T02:22:21.351Z,2.00
2018-07-03T02:24:49.591Z,2.00
2018-07-03T02:27:17.816Z,1.87
2018-07-03T02:29:46.621Z,1.70
2018-07-03T02:32:14.850Z,2.00
2018-07-03T02:34:43.072Z,1.80
2018-07-03T02:37:11.277Z,1.77
2018-07-03T02:39:39.553Z,1.90
2018-07-03T02:42:08.776Z,2.03
2018-07-03T02:44:37.013Z,2.10
2018-07-03T02:47:13.109Z,2.00
2018-07-03T02:49:41.348Z,1.77
2018-07-03T02:52:09.577Z,2.00
2018-07-03T02:54:37.826Z,1.80
2018-07-03T02:57:06.060Z,2.10
2018-07-03T02:59:34.288Z,2.20
2018-07-03T03:02:02.521Z,2.40
2018-07-03T03:04:30.782Z,2.30
2018-07-03T03:06:59.051Z,2.00
2018-07-03T03:09:27.349Z,2.67
2018-07-03T03:11:55.769Z,2.20
2018-07-03T03:14:23.997Z,2.13
2018-07-03T03:16:52.421Z,2.17
2018-07-03T03:19:20.690Z,2.20
2018-07-03T03:21:48.896Z,1.90
2018-07-03T03:24:17.153Z,2.40
2018-07-03T03:26:45.377Z,2.40
2018-07-03T03:29:13.601Z,2.37
2018-07-03T03:31:41.832Z,2.30
2018-07-03T03:34:10.068Z,2.50
2018-07-03T03:36:38.300Z,2.37
2018-07-03T03:39:07.301Z,3.03
2018-07-03T03:41:35.504Z,2.60
2018-07-03T03:44:03.726Z,2.43
2018-07-03T03:46:31.981Z,2.70
2018-07-03T03:49:00.198Z,2.10
2018-07-03T03:51:28.427Z,2.53
2018-07-03T03:53:56.636Z,2.13
2018-07-03T03:56:24.869Z,2.40
2018-07-03T03:58:53.104Z,2.87
2018-07-03T04:01:21.343Z,2.53
2018-07-03T04:03:49.587Z,2.30
2018-07-03T04:06:18.022Z,2.97
2018-07-03T04:08:46.265Z,2.20
2018-07-03T04:11:14.480Z,2.40
2018-07-03T04:13:42.734Z,2.50
2018-07-03T04:16:10.973Z,2.60
2018-07-03T04:18:39.245Z,2.40
2018-07-03T04:21:08.309Z,2.37
2018-07-03T04:23:37.484Z,2.50
2018-07-03T04:26:05.744Z,2.30
2018-07-03T04:28:34.444Z,2.50
2018-07-03T04:31:03.773Z,2.43
2018-07-03T04:33:32.047Z,2.00
2018-07-03T04:36:00.444Z,1.80
2018-07-03T04:38:28.665Z,2.10
2018-07-03T04:40:56.898Z,2.03
2018-07-03T04:43:25.108Z,2.10
2018-07-03T04:45:53.481Z,1.90
2018-07-03T04:48:21.740Z,2.03
2018-07-03T04:50:49.974Z,2.10
2018-07-03T04:53:18.047Z,2.10
2018-07-03T04:55:46.280Z,2.27
2018-07-03T04:58:14.518Z,1.90
2018-07-03T05:00:42.756Z,2.30
2018-07-03T05:03:10.989Z,2.07
2018-07-03T05:05:39.255Z,2.20
2018-07-03T05:08:07.491Z,2.73
2018-07-03T05:10:35.713Z,2.00
2018-07-03T05:13:04.049Z,2.00
2018-07-03T05:15:32.276Z,1.90
2018-07-03T05:18:00.549Z,2.00
2018-07-03T05:20:28.829Z,1.90
2018-07-03T05:22:57.064Z,2.43
2018-07-03T05:25:25.277Z,2.17
2018-07-03T05:27:53.540Z,1.80
2018-07-03T05:30:21.792Z,1.70
2018-07-03T05:32:50.033Z,2.27
2018-07-03T05:35:18.261Z,1.90
2018-07-03T05:37:46.509Z,1.67
2018-07-03T05:40:14.761Z,1.40
2018-07-03T05:42:42.800Z,2.40
2018-07-03T05:45:11.044Z,1.90
2018-07-03T05:47:39.345Z,1.80
2018-07-03T05:50:07.573Z,1.60
2018-07-03T05:52:35.866Z,1.67
2018-07-03T05:55:04.112Z,1.60
2018-07-03T05:57:32.371Z,1.60
2018-07-03T06:00:00.616Z,1.63
2018-07-03T06:02:28.872Z,1.40
2018-07-03T06:04:57.508Z,1.40
2018-07-03T06:07:25.756Z,1.40
2018-07-03T06:09:53.965Z,1.40
2018-07-03T06:12:22.221Z,1.67
2018-07-03T06:14:50.449Z,1.57
2018-07-03T06:17:18.933Z,1.50
2018-07-03T06:19:47.025Z,1.50
2018-07-03T06:22:15.266Z,1.40
2018-07-03T06:24:43.512Z,1.60
2018-07-03T06:27:11.753Z,1.20
2018-07-03T06:29:39.993Z,1.60
2018-07-03T06:32:08.279Z,1.40
2018-07-03T06:34:36.551Z,1.30
2018-07-03T06:37:04.836Z,1.50
2018-07-03T06:39:33.084Z,1.40
2018-07-03T06:42:01.315Z,1.20
2018-07-03T06:44:29.562Z,1.27
2018-07-03T06:46:57.883Z,1.97
2018-07-03T06:49:26.136Z,1.23
2018-07-03T06:51:54.385Z,1.70
2018-07-03T06:54:22.644Z,1.50
2018-07-03T06:56:51.325Z,1.23
2018-07-03T06:59:20.613Z,1.20
2018-07-03T07:01:48.821Z,1.20
2018-07-03T07:04:17.080Z,1.07
2018-07-03T07:06:45.369Z,1.10
2018-07-03T07:09:13.710Z,1.60
2018-07-03T07:11:41.937Z,1.10
2018-07-03T07:14:10.224Z,1.20
2018-07-03T07:16:38.424Z,1.33
2018-07-03T07:19:06.665Z,1.20
2018-07-03T07:21:34.868Z,1.07
2018-07-03T07:24:03.092Z,1.30
2018-07-03T07:26:31.308Z,1.20
2018-07-03T07:28:59.320Z,1.20
2018-07-03T07:31:27.579Z,1.10
2018-07-03T07:33:55.818Z,1.00
2018-07-03T07:36:24.024Z,0.90
2018-07-03T07:38:52.233Z,1.00
2018-07-03T07:41:20.499Z,0.85
2018-07-03T07:43:48.752Z,1.35
2018-07-03T07:46:16.984Z,1.07
2018-07-03T07:48:45.200Z,0.90
2018-07-03T07:51:13.501Z,0.80
2018-07-03T07:53:41.712Z,0.80
2018-07-03T07:56:09.960Z,0.80
2018-07-03T07:58:38.284Z,1.00
2018-07-03T08:01:06.620Z,1.00
2018-07-03T08:03:34.855Z,1.22
2018-07-03T08:06:03.135Z,1.00
2018-07-03T08:08:31.378Z,0.62
2018-07-03T08:10:59.637Z,1.00
2018-07-03T08:13:27.909Z,0.90
2018-07-03T08:15:56.132Z,0.65
2018-07-03T08:18:24.373Z,0.80
2018-07-03T08:20:52.608Z,0.80
2018-07-03T08:23:20.840Z,0.80
2018-07-03T08:25:49.085Z,0.80
2018-07-03T08:28:17.292Z,1.00
2018-07-03T08:30:45.553Z,0.85
2018-07-03T08:33:14.849Z,0.90
2018-07-03T08:35:43.224Z,0.80
2018-07-03T08:38:11.572Z,0.78
2018-07-03T08:40:40.464Z,0.75
2018-07-03T08:43:08.853Z,0.90
2018-07-03T08:45:37.172Z,1.10
2018-07-03T08:48:06.100Z,1.00
2018-07-03T08:50:34.690Z,0.90
2018-07-03T08:53:02.933Z,1.35
2018-07-03T08:55:31.181Z,0.90
2018-07-03T08:57:59.408Z,1.02
2018-07-03T09:00:27.656Z,0.90
2018-07-03T09:02:55.904Z,0.80
2018-07-03T09:05:24.304Z,1.10
2018-07-03T09:07:52.540Z,1.27
2018-07-03T09:10:20.779Z,0.90
2018-07-03T09:12:49.007Z,0.88
2018-07-03T09:15:17.309Z,1.00
2018-07-03T09:17:45.565Z,1.00
2018-07-03T09:20:13.837Z,0.78
2018-07-03T09:22:42.100Z,1.40
2018-07-03T09:25:10.336Z,1.10
2018-07-03T09:27:38.589Z,0.82
2018-07-03T09:30:07.959Z,0.98
2018-07-03T09:32:36.429Z,0.82
2018-07-03T09:35:04.831Z,1.30
2018-07-03T09:37:33.160Z,0.80
2018-07-03T09:40:01.385Z,0.82
2018-07-03T09:42:29.700Z,0.88
2018-07-03T09:44:57.928Z,1.20
2018-07-03T09:47:26.806Z,1.15
2018-07-03T09:49:55.113Z,0.90
2018-07-03T09:52:23.386Z,0.72
2018-07-03T09:54:51.716Z,0.90
2018-07-03T09:57:19.949Z,0.88
2018-07-03T09:59:48.176Z,0.90
2018-07-03T10:02:16.529Z,1.80
2018-07-03T10:04:44.772Z,1.00
2018-07-03T10:07:13.056Z,0.90
2018-07-03T10:09:41.063Z,1.10
2018-07-03T10:12:09.372Z,1.00
2018-07-03T10:14:37.593Z,1.12
2018-07-03T10:17:05.824Z,0.80
2018-07-03T10:19:34.071Z,0.90
2018-07-03T10:22:02.304Z,0.90
2018-07-03T10:24:30.532Z,0.80
2018-07-03T10:26:58.777Z,0.90
2018-07-03T10:29:27.016Z,0.90
2018-07-03T10:31:55.229Z,1.00
2018-07-03T10:34:23.461Z,1.10
2018-07-03T10:36:51.679Z,1.00
2018-07-03T10:39:19.915Z,1.10
2018-07-03T10:41:48.161Z,1.25
2018-07-03T10:44:16.392Z,0.90
2018-07-03T10:46:44.616Z,1.10
2018-07-03T10:49:12.868Z,1.15
2018-07-03T10:51:41.141Z,0.90
2018-07-03T10:54:09.608Z,1.00
2018-07-03T10:56:37.974Z,0.90
2018-07-03T10:59:06.286Z,1.00
2018-07-03T11:01:34.517Z,0.90
2018-07-03T11:04:02.802Z,1.00
2018-07-03T11:06:31.026Z,1.10
2018-07-03T11:08:59.252Z,1.00
2018-07-03T11:11:27.501Z,0.90
2018-07-03T11:13:55.916Z,1.10
2018-07-03T11:16:24.276Z,0.85
2018-07-03T11:18:52.508Z,0.93
2018-07-03T11:21:20.796Z,1.10
2018-07-03T11:23:49.064Z,0.80
2018-07-03T11:26:17.280Z,0.90
2018-07-03T11:28:45.552Z,1.00
2018-07-03T11:31:13.833Z,1.15
2018-07-03T11:33:42.088Z,0.90
2018-07-03T11:36:10.309Z,1.00
2018-07-03T11:38:38.539Z,1.00
2018-07-03T11:41:06.829Z,1.20
2018-07-03T11:43:35.052Z,1.10
2018-07-03T11:46:04.368Z,1.02
2018-07-03T11:48:32.582Z,0.95
2018-07-03T11:51:00.865Z,1.00
2018-07-03T11:53:29.136Z,1.17
2018-07-03T11:55:57.341Z,0.80
2018-07-03T11:58:25.572Z,1.10
2018-07-03T12:00:54.424Z,1.00
2018-07-03T12:03:22.641Z,1.00
2018-07-03T12:05:50.911Z,1.00
2018-07-03T12:08:19.135Z,1.00
2018-07-03T12:10:47.410Z,1.10
2018-07-03T12:13:15.628Z,2.30
2018-07-03T12:15:43.881Z,0.90
2018-07-03T12:18:17.308Z,0.98
2018-07-03T12:20:45.587Z,0.98
2018-07-03T12:23:13.858Z,1.07
2018-07-03T12:25:42.088Z,1.00
2018-07-03T12:28:10.316Z,1.00
2018-07-03T12:30:38.574Z,0.90
2018-07-03T12:33:06.847Z,1.00
2018-07-03T12:35:35.100Z,1.15
2018-07-03T12:38:03.091Z,0.95
2018-07-03T12:40:31.325Z,1.10
2018-07-03T12:42:59.589Z,1.20
2018-07-03T12:45:27.844Z,1.12
2018-07-03T12:47:56.068Z,0.90
2018-07-03T12:50:24.333Z,1.00
2018-07-03T12:52:52.576Z,1.15
2018-07-03T12:55:21.008Z,1.00
2018-07-03T12:57:49.224Z,1.20
2018-07-03T13:00:17.483Z,1.20
2018-07-03T13:02:45.709Z,1.15
2018-07-03T13:05:13.710Z,1.10
2018-07-03T13:07:42.016Z,1.10
2018-07-03T13:10:10.232Z,1.00
2018-07-03T13:12:38.234Z,0.90
2018-07-03T13:15:06.465Z,1.00
2018-07-03T13:17:34.696Z,0.90
2018-07-03T13:20:03.001Z,1.10
2018-07-03T13:22:31.445Z,1.17
2018-07-03T13:24:59.773Z,1.00
2018-07-03T13:27:28.070Z,1.20
2018-07-03T13:29:56.309Z,1.00
2018-07-03T13:32:24.556Z,1.00
2018-07-03T13:34:52.844Z,0.90
2018-07-03T13:37:21.069Z,1.20
2018-07-03T13:39:49.297Z,1.20
2018-07-03T13:42:17.556Z,1.20
2018-07-03T13:44:45.840Z,0.90
2018-07-03T13:47:14.170Z,1.00
2018-07-03T13:49:42.436Z,1.07
2018-07-03T13:52:10.732Z,1.07
2018-07-03T13:54:39.071Z,0.90
2018-07-03T13:57:07.305Z,1.40
2018-07-03T13:59:35.568Z,1.10
2018-07-03T14:02:03.832Z,1.05
2018-07-03T14:04:32.155Z,1.22
2018-07-03T14:07:00.515Z,0.93
2018-07-03T14:09:28.784Z,1.20
2018-07-03T14:11:57.060Z,1.10
2018-07-03T14:14:25.335Z,1.00
2018-07-03T14:16:53.589Z,1.10
2018-07-03T14:19:21.856Z,1.22
2018-07-03T14:21:50.102Z,1.10
2018-07-03T14:24:20.411Z,0.95
2018-07-03T14:26:48.644Z,1.20
2018-07-03T14:29:16.937Z,1.00
2018-07-03T14:31:45.153Z,1.10
2018-07-03T14:34:13.160Z,1.00
2018-07-03T14:36:42.628Z,1.20
2018-07-03T14:39:12.810Z,1.20
2018-07-03T14:41:41.260Z,1.10
2018-07-03T14:44:09.576Z,1.00
2018-07-03T14:46:37.856Z,1.30
2018-07-03T14:49:06.111Z,1.00
2018-07-03T14:51:34.346Z,1.32
2018-07-03T14:54:02.625Z,1.30
2018-07-03T14:56:31.343Z,1.17
2018-07-03T14:58:59.636Z,1.30
2018-07-03T15:01:27.941Z,1.30
2018-07-03T15:03:56.320Z,1.27
2018-07-03T15:06:24.604Z,1.17
2018-07-03T15:08:52.854Z,1.30
2018-07-03T15:11:21.068Z,1.05
2018-07-03T15:13:49.315Z,1.00
2018-07-03T15:16:17.585Z,1.20
2018-07-03T15:18:51.022Z,1.00
2018-07-03T15:21:19.340Z,1.00
2018-07-03T15:23:47.598Z,1.15
2018-07-03T15:26:16.071Z,1.20
2018-07-03T15:28:44.321Z,1.10
2018-07-03T15:31:12.533Z,1.12
2018-07-03T15:33:40.824Z,0.90
2018-07-03T15:36:09.045Z,1.02
2018-07-03T15:38:37.299Z,1.00
2018-07-03T15:41:05.600Z,1.67
2018-07-03T15:43:34.845Z,1.02
2018-07-03T15:46:03.120Z,1.00
2018-07-03T15:48:31.380Z,1.00
2018-07-03T15:50:59.642Z,1.27
2018-07-03T15:53:27.900Z,1.40
2018-07-03T15:55:57.149Z,1.20
2018-07-03T15:58:26.512Z,1.20
2018-07-03T16:00:54.784Z,1.60
2018-07-03T16:05:38.636Z,0.93
2018-07-03T16:09:14.982Z,1.00
2018-07-03T16:11:43.331Z,1.02
2018-07-03T16:14:12.513Z,1.05
2018-07-03T16:16:41.509Z,1.30
2018-07-03T16:19:15.278Z,1.10
2018-07-03T16:21:43.528Z,1.10
2018-07-03T16:24:11.773Z,0.90
2018-07-03T16:26:40.126Z,1.20
2018-07-03T16:29:10.869Z,1.15
2018-07-03T16:31:39.156Z,1.20
2018-07-03T16:34:07.218Z,1.10
2018-07-03T16:36:35.771Z,2.72
2018-07-03T16:39:06.996Z,1.00
2018-07-03T16:41:35.319Z,4.58
2018-07-03T16:44:03.556Z,1.35
2018-07-03T16:46:31.772Z,1.10
2018-07-03T16:48:59.981Z,1.20
2018-07-03T16:51:28.336Z,0.95
2018-07-03T16:53:56.573Z,1.15
2018-07-03T16:56:25.863Z,1.10
2018-07-03T16:58:54.259Z,1.10
2018-07-03T17:01:22.515Z,1.10
2018-07-03T17:03:50.832Z,1.30
2018-07-03T17:06:18.871Z,1.10
2018-07-03T17:08:47.132Z,1.00
2018-07-03T17:11:15.349Z,0.90
2018-07-03T17:13:43.431Z,1.30
2018-07-03T17:16:11.621Z,1.30
2018-07-03T17:18:44.096Z,1.10
2018-07-03T17:21:12.342Z,1.00
2018-07-03T17:23:41.680Z,1.00
2018-07-03T17:26:09.921Z,0.98
2018-07-03T17:28:38.148Z,1.10
2018-07-03T17:31:06.501Z,1.13
2018-07-03T17:33:34.745Z,1.20
2018-07-03T17:36:02.988Z,0.80
2018-07-03T17:38:31.220Z,1.00
2018-07-03T17:41:10.898Z,1.00
2018-07-03T17:44:20.808Z,1.03
2018-07-03T17:46:49.033Z,1.13
2018-07-03T17:49:17.276Z,1.40
2018-07-03T17:51:45.493Z,1.00
2018-07-03T17:54:14.257Z,1.10
2018-07-03T17:56:42.488Z,1.30
2018-07-03T17:59:10.799Z,1.07
2018-07-03T18:01:40.128Z,1.00
2018-07-03T18:04:08.548Z,1.30
2018-07-03T18:06:37.800Z,1.00
2018-07-03T18:09:10.056Z,0.87
2018-07-03T18:11:38.341Z,1.60
2018-07-03T18:14:09.116Z,1.10
2018-07-03T18:16:37.385Z,1.30
2018-07-03T18:19:11.183Z,1.20
2018-07-03T18:21:39.656Z,1.40
2018-07-03T18:24:07.739Z,1.40
2018-07-03T18:26:35.748Z,1.20
2018-07-03T18:29:03.975Z,1.33
2018-07-03T18:31:32.380Z,1.40
2018-07-03T18:34:00.464Z,1.13
2018-07-03T18:36:28.685Z,1.40
2018-07-03T18:38:58.193Z,1.30
2018-07-03T18:41:26.473Z,1.50
2018-07-03T18:43:54.703Z,1.13
2018-07-03T18:46:23.248Z,1.40
2018-07-03T18:48:51.435Z,1.67
2018-07-03T18:51:20.008Z,1.53
2018-07-03T18:53:48.365Z,1.40
2018-07-03T18:56:16.671Z,1.60
2018-07-03T18:58:44.951Z,1.43
2018-07-03T19:01:13.253Z,1.63
2018-07-03T19:03:41.548Z,1.47
2018-07-03T19:06:09.796Z,1.47
2018-07-03T19:08:38.022Z,1.87
2018-07-03T19:11:06.457Z,1.70
2018-07-03T19:13:35.997Z,1.40
2018-07-03T19:16:04.235Z,1.60
2018-07-03T19:18:32.467Z,1.70
2018-07-03T19:21:00.848Z,1.40
2018-07-03T19:23:29.083Z,1.53
2018-07-03T19:25:57.381Z,1.53
2018-07-03T19:28:25.691Z,1.50
2018-07-03T19:30:53.921Z,1.83
2018-07-03T19:33:21.911Z,1.57
2018-07-03T19:35:50.460Z,1.30
2018-07-03T19:38:18.692Z,1.30
2018-07-03T19:40:46.957Z,1.50
2018-07-03T19:43:18.339Z,1.40
2018-07-03T19:45:46.568Z,1.67
2018-07-03T19:48:15.647Z,1.70
2018-07-03T19:50:43.717Z,1.60
2018-07-03T19:53:11.948Z,1.70
2018-07-03T19:55:40.265Z,1.60
2018-07-03T19:58:08.513Z,2.00
2018-07-03T20:00:37.196Z,2.10
2018-07-03T20:03:05.616Z,2.20
2018-07-03T20:05:34.197Z,2.20
2018-07-03T20:08:02.984Z,2.40
2018-07-03T20:10:31.261Z,2.87
2018-07-03T20:12:59.655Z,2.37
2018-07-03T20:15:27.852Z,2.70
2018-07-03T20:17:56.196Z,2.80
2018-07-03T20:20:25.138Z,2.80
2018-07-03T20:22:53.411Z,2.47
2018-07-03T20:25:21.675Z,2.30
2018-07-03T20:27:49.930Z,2.40
2018-07-03T20:30:18.206Z,2.37
2018-07-03T20:32:46.645Z,2.20
2018-07-03T20:35:14.896Z,2.43
2018-07-03T20:37:57.495Z,3.00
2018-07-03T20:40:26.132Z,2.10
2018-07-03T20:42:57.557Z,2.33
2018-07-03T20:45:28.161Z,2.30
2018-07-03T20:47:56.403Z,2.40
2018-07-03T20:50:24.641Z,1.97
2018-07-03T20:52:52.929Z,2.27
2018-07-03T20:55:20.907Z,2.23
2018-07-03T20:57:49.185Z,2.60
2018-07-03T21:00:17.485Z,2.40
2018-07-03T21:02:45.736Z,2.10
2018-07-03T21:05:14.049Z,2.20
2018-07-03T21:07:42.320Z,2.43
2018-07-03T21:10:10.600Z,2.10
2018-07-03T21:12:38.857Z,2.37
2018-07-03T21:15:07.119Z,1.77
2018-07-03T21:17:35.367Z,2.13
2018-07-03T21:20:03.365Z,2.20
2018-07-03T21:22:31.601Z,1.83
2018-07-03T21:25:00.730Z,1.80
2018-07-03T21:27:29.012Z,1.70
2018-07-03T21:29:57.265Z,1.90
2018-07-03T21:32:25.504Z,1.80
2018-07-03T21:34:54.362Z,2.07
2018-07-03T21:37:22.606Z,2.10
2018-07-03T21:39:50.932Z,2.40
2018-07-03T21:42:19.211Z,2.20
2018-07-03T21:44:47.458Z,2.20
2018-07-03T21:47:15.872Z,2.10
2018-07-03T21:49:44.153Z,2.10
2018-07-03T21:52:12.429Z,2.13
2018-07-03T21:54:40.682Z,1.80
2018-07-03T21:57:08.960Z,2.00
2018-07-03T21:59:37.308Z,1.80
2018-07-03T22:02:05.579Z,2.20
2018-07-03T22:04:34.013Z,1.87
2018-07-03T22:07:02.284Z,1.90
2018-07-03T22:09:30.613Z,2.10
2018-07-03T22:11:58.967Z,2.60
2018-07-03T22:14:27.116Z,2.03
2018-07-03T22:16:55.335Z,2.10
2018-07-03T22:19:23.556Z,2.33
2018-07-03T22:21:51.815Z,2.70
2018-07-03T22:24:20.279Z,2.60
2018-07-03T22:26:48.588Z,2.10
2018-07-03T22:29:16.848Z,2.10
2018-07-03T22:31:45.088Z,2.73
2018-07-03T22:34:13.320Z,2.07
2018-07-03T22:36:41.554Z,2.10
2018-07-03T22:39:10.161Z,2.90
2018-07-03T22:41:38.638Z,2.17
2018-07-03T22:44:06.874Z,2.30
2018-07-03T22:46:35.160Z,2.17
2018-07-03T22:49:07.590Z,2.40
2018-07-03T22:51:35.611Z,2.57
2018-07-03T22:54:03.816Z,2.00
2018-07-03T22:56:32.077Z,2.20
2018-07-03T22:59:00.466Z,2.10
2018-07-03T23:01:28.784Z,2.00
2018-07-03T23:03:57.033Z,2.00
2018-07-03T23:06:25.360Z,2.30
2018-07-03T23:08:54.252Z,2.20
2018-07-03T23:11:22.474Z,2.10
2018-07-03T23:13:51.581Z,2.13
2018-07-03T23:16:19.810Z,2.27
2018-07-03T23:18:48.036Z,2.10
2018-07-03T23:21:16.295Z,2.27
2018-07-03T23:23:44.571Z,2.27
2018-07-03T23:26:12.821Z,2.10
2018-07-03T23:28:41.041Z,2.30
2018-07-03T23:31:09.300Z,2.57
2018-07-03T23:33:37.533Z,2.10
2018-07-03T23:36:05.798Z,2.47
2018-07-03T23:38:34.041Z,2.50
2018-07-03T23:41:02.285Z,2.07
2018-07-03T23:43:30.520Z,2.30
2018-07-03T23:45:59.808Z,2.20
2018-07-03T23:48:39.584Z,2.30
2018-07-03T23:51:20.061Z,2.13
2018-07-03T23:53:59.696Z,2.30
2018-07-03T23:56:33.832Z,2.33
2018-07-03T23:59:13.420Z,2.30
